createdAt,value
2022-10-02T00:01:59.603Z,12.49
2022-10-02T00:04:33.453Z,12.48
2022-10-02T00:07:05.838Z,12.45
2022-10-02T00:09:38.614Z,12.42
2022-10-02T00:12:08.628Z,12.40
2022-10-02T00:14:38.407Z,12.38
2022-10-02T00:17:05.108Z,12.36
2022-10-02T00:19:31.681Z,12.31
2022-10-02T00:22:04.023Z,12.29
2022-10-02T00:24:44.437Z,12.28
2022-10-02T00:27:23.021Z,12.27
2022-10-02T00:29:52.446Z,12.24
2022-10-02T00:32:18.747Z,12.25
2022-10-02T00:34:55.769Z,12.26
2022-10-02T00:37:30.369Z,12.31
2022-10-02T00:40:08.962Z,12.36
2022-10-02T00:42:47.409Z,12.39
2022-10-02T00:45:51.338Z,12.47
2022-10-02T00:48:26.790Z,12.52
2022-10-02T00:51:08.185Z,12.51
2022-10-02T00:53:59.358Z,12.48
2022-10-02T00:56:44.003Z,12.43
2022-10-02T00:59:26.709Z,12.39
2022-10-02T01:02:24.264Z,12.34
2022-10-02T01:04:50.673Z,12.32
2022-10-02T01:07:17.065Z,12.29
2022-10-02T01:09:44.486Z,12.27
2022-10-02T01:12:11.574Z,12.23
2022-10-02T01:14:39.825Z,12.22
2022-10-02T01:17:20.180Z,12.18
2022-10-02T01:19:46.643Z,12.13
2022-10-02T01:22:34.381Z,12.11
2022-10-02T01:25:04.696Z,12.08
2022-10-02T01:27:33.671Z,12.06
2022-10-02T01:30:04.608Z,12.05
2022-10-02T01:32:33.211Z,12.04
2022-10-02T01:35:00.775Z,12.05
2022-10-02T01:37:31.247Z,12.06
2022-10-02T01:40:04.297Z,12.07
2022-10-02T01:42:31.658Z,12.07
2022-10-02T01:44:58.496Z,12.09
2022-10-02T01:48:11.297Z,12.10
2022-10-02T01:51:20.544Z,12.11
2022-10-02T01:53:50.341Z,12.14
2022-10-02T01:56:49.134Z,12.14
2022-10-02T01:59:18.128Z,12.17
2022-10-02T02:01:51.583Z,12.14
2022-10-02T02:04:28.004Z,12.14
2022-10-02T02:07:13.043Z,12.15
2022-10-02T02:09:47.645Z,12.14
2022-10-02T02:12:49.741Z,12.13
2022-10-02T02:15:20.417Z,12.15
2022-10-02T02:17:53.585Z,12.19
2022-10-02T02:20:29.613Z,12.16
2022-10-02T02:23:04.573Z,12.18
2022-10-02T02:25:34.265Z,12.14
2022-10-02T02:28:06.118Z,12.12
2022-10-02T02:30:35.957Z,12.09
2022-10-02T02:33:07.269Z,12.08
2022-10-02T02:35:45.741Z,12.06
2022-10-02T02:38:24.751Z,12.03
2022-10-02T02:40:51.776Z,12.03
2022-10-02T02:43:28.209Z,12.02
2022-10-02T02:46:04.691Z,12.02
2022-10-02T02:48:42.642Z,12.05
2022-10-02T02:51:15.157Z,12.07
2022-10-02T02:53:44.215Z,12.10
2022-10-02T02:56:14.379Z,12.15
2022-10-02T02:58:51.572Z,12.19
2022-10-02T03:01:18.124Z,12.18
2022-10-02T03:03:44.489Z,12.19
2022-10-02T03:06:17.018Z,12.19
2022-10-02T03:08:43.988Z,12.20
2022-10-02T03:11:39.279Z,12.18
2022-10-02T03:14:22.853Z,12.19
2022-10-02T03:17:02.266Z,12.16
2022-10-02T03:19:47.777Z,12.13
2022-10-02T03:22:43.359Z,12.11
2022-10-02T03:25:15.478Z,12.08
2022-10-02T03:27:54.862Z,12.05
2022-10-02T03:30:22.017Z,12.01
2022-10-02T03:32:53.369Z,11.98
2022-10-02T03:35:22.508Z,11.95
2022-10-02T03:37:52.637Z,11.94
2022-10-02T03:40:25.877Z,11.93
2022-10-02T03:42:53.731Z,11.91
2022-10-02T03:45:46.233Z,11.91
2022-10-02T03:48:06.509Z,11.89
2022-10-02T03:50:36.202Z,11.90
2022-10-02T03:53:12.965Z,11.91
2022-10-02T03:55:42.758Z,11.90
2022-10-02T03:58:15.816Z,11.90
2022-10-02T04:00:58.410Z,11.92
2022-10-02T04:03:33.573Z,11.92
2022-10-02T04:06:05.138Z,11.91
2022-10-02T04:08:36.925Z,11.92
2022-10-02T04:11:18.812Z,11.91
2022-10-02T04:13:50.394Z,11.91
2022-10-02T04:16:24.233Z,11.88
2022-10-02T04:18:57.553Z,11.86
2022-10-02T04:21:40.265Z,11.83
2022-10-02T04:24:21.652Z,11.78
2022-10-02T04:27:00.252Z,11.77
2022-10-02T04:29:31.989Z,11.74
2022-10-02T04:32:11.898Z,11.73
2022-10-02T04:34:39.116Z,11.69
2022-10-02T04:37:48.140Z,11.68
2022-10-02T04:40:27.672Z,11.66
2022-10-02T04:42:53.948Z,11.66
2022-10-02T04:45:41.861Z,11.63
2022-10-02T04:48:11.317Z,11.59
2022-10-02T04:50:57.889Z,11.56
2022-10-02T04:53:53.694Z,11.50
2022-10-02T04:56:38.214Z,11.45
2022-10-02T04:59:32.374Z,11.40
2022-10-02T05:02:16.065Z,11.38
2022-10-02T05:04:42.422Z,11.36
2022-10-02T05:07:24.151Z,11.32
2022-10-02T05:10:16.743Z,11.34
2022-10-02T05:13:16.451Z,11.36
2022-10-02T05:15:57.479Z,11.39
2022-10-02T05:18:38.996Z,11.43
2022-10-02T05:21:27.134Z,11.48
2022-10-02T05:23:59.239Z,11.56
2022-10-02T05:26:41.477Z,11.63
2022-10-02T05:29:13.698Z,11.69
2022-10-02T05:32:15.635Z,11.75
2022-10-02T05:35:19.457Z,11.78
2022-10-02T05:38:08.934Z,11.82
2022-10-02T05:40:47.724Z,11.86
2022-10-02T05:43:42.263Z,11.88
2022-10-02T05:46:16.191Z,11.94
2022-10-02T05:48:52.779Z,11.95
2022-10-02T05:51:31.566Z,11.93
2022-10-02T05:54:03.937Z,11.93
2022-10-02T05:56:40.000Z,11.93
2022-10-02T05:59:06.621Z,11.94
2022-10-02T06:01:46.469Z,11.92
2022-10-02T06:04:29.238Z,11.90
2022-10-02T06:07:01.049Z,11.88
2022-10-02T06:09:29.664Z,11.90
2022-10-02T06:11:58.863Z,11.90
2022-10-02T06:14:33.530Z,11.90
2022-10-02T06:17:14.225Z,11.92
2022-10-02T06:19:50.116Z,11.94
2022-10-02T06:22:21.090Z,11.97
2022-10-02T06:24:53.198Z,11.99
2022-10-02T06:27:44.426Z,11.99
2022-10-02T06:30:14.217Z,12.02
2022-10-02T06:32:40.545Z,12.03
2022-10-02T06:35:13.144Z,12.06
2022-10-02T06:37:58.604Z,12.09
2022-10-02T06:40:52.763Z,12.15
2022-10-02T06:43:58.222Z,12.19
2022-10-02T06:46:52.339Z,12.23
2022-10-02T06:49:40.574Z,12.27
2022-10-02T06:52:32.267Z,12.31
2022-10-02T06:55:41.957Z,12.35
2022-10-02T06:58:25.229Z,12.36
2022-10-02T07:01:29.945Z,12.41
2022-10-02T07:04:26.408Z,12.49
2022-10-02T07:07:02.189Z,12.55
2022-10-02T07:09:34.118Z,12.58
2022-10-02T07:12:05.890Z,12.63
2022-10-02T07:14:51.111Z,12.70
2022-10-02T07:17:36.282Z,12.75
2022-10-02T07:20:22.907Z,12.78
2022-10-02T07:23:07.761Z,12.84
2022-10-02T07:25:58.436Z,12.89
2022-10-02T07:28:31.806Z,12.95
2022-10-02T07:31:07.899Z,12.99
2022-10-02T07:33:47.297Z,13.06
2022-10-02T07:36:37.756Z,13.10
2022-10-02T07:39:37.267Z,13.16
2022-10-02T07:42:36.823Z,13.19
2022-10-02T07:45:26.064Z,13.24
2022-10-02T07:48:19.679Z,13.36
2022-10-02T07:51:00.314Z,13.41
2022-10-02T07:53:51.481Z,13.50
2022-10-02T07:56:22.567Z,13.57
2022-10-02T07:58:57.396Z,13.70
2022-10-02T08:01:33.455Z,13.75
2022-10-02T08:04:22.297Z,13.89
2022-10-02T08:07:01.662Z,14.05
2022-10-02T08:09:43.961Z,14.18
2022-10-02T08:12:34.673Z,14.28
2022-10-02T08:15:02.413Z,14.28
2022-10-02T08:17:43.312Z,14.29
2022-10-02T08:20:29.478Z,14.35
2022-10-02T08:23:23.478Z,14.36
2022-10-02T08:26:06.577Z,14.42
2022-10-02T08:28:40.547Z,14.48
2022-10-02T08:31:12.273Z,14.54
2022-10-02T08:33:39.330Z,14.62
2022-10-02T08:36:27.033Z,14.68
2022-10-02T08:39:10.928Z,14.75
2022-10-02T08:42:10.625Z,14.89
2022-10-02T08:45:08.028Z,15.06
2022-10-02T08:48:05.290Z,15.18
2022-10-02T08:51:00.809Z,15.32
2022-10-02T08:53:45.654Z,15.38
2022-10-02T08:56:38.285Z,15.38
2022-10-02T08:59:07.574Z,15.43
2022-10-02T09:01:44.635Z,15.51
2022-10-02T09:04:35.974Z,15.57
2022-10-02T09:07:28.321Z,15.68
2022-10-02T09:10:13.321Z,15.80
2022-10-02T09:13:11.036Z,15.99
2022-10-02T09:15:52.538Z,16.12
2022-10-02T09:18:43.736Z,16.12
2022-10-02T09:21:22.834Z,16.09
2022-10-02T09:24:22.502Z,15.99
2022-10-02T09:27:08.026Z,15.93
2022-10-02T09:30:05.077Z,15.90
2022-10-02T09:32:43.344Z,15.88
2022-10-02T09:35:37.323Z,15.82
2022-10-02T09:38:27.146Z,15.75
2022-10-02T09:41:24.372Z,15.70
2022-10-02T09:44:29.034Z,15.67
2022-10-02T09:47:21.007Z,15.79
2022-10-02T09:50:06.003Z,15.97
2022-10-02T09:52:50.891Z,16.23
2022-10-02T09:55:50.015Z,16.32
2022-10-02T09:58:59.853Z,16.43
2022-10-02T10:01:29.178Z,16.60
2022-10-02T10:04:54.130Z,16.81
2022-10-02T10:07:35.507Z,16.86
2022-10-02T10:10:30.677Z,16.66
2022-10-02T10:13:22.184Z,16.52
2022-10-02T10:16:19.065Z,16.60
2022-10-02T10:19:23.666Z,16.65
2022-10-02T10:22:35.981Z,16.83
2022-10-02T10:25:43.216Z,17.05
2022-10-02T10:28:44.179Z,17.04
2022-10-02T10:31:25.291Z,17.18
2022-10-02T10:34:16.798Z,17.29
2022-10-02T10:37:16.414Z,17.47
2022-10-02T10:39:57.499Z,17.70
2022-10-02T10:42:26.555Z,17.75
2022-10-02T10:45:07.728Z,17.81
2022-10-02T10:47:57.401Z,17.87
2022-10-02T10:50:48.989Z,17.93
2022-10-02T10:53:24.410Z,18.04
2022-10-02T10:55:59.101Z,18.03
2022-10-02T10:58:43.109Z,17.89
2022-10-02T11:01:48.940Z,17.79
2022-10-02T11:04:35.158Z,17.46
2022-10-02T11:07:21.962Z,17.15
2022-10-02T11:10:07.559Z,16.89
2022-10-02T11:12:52.245Z,16.74
2022-10-02T11:15:24.938Z,16.70
2022-10-02T11:18:00.772Z,16.71
2022-10-02T11:20:29.978Z,16.82
2022-10-02T11:23:19.293Z,17.00
2022-10-02T11:26:08.611Z,17.34
2022-10-02T11:29:14.013Z,17.69
2022-10-02T11:32:34.223Z,17.87
2022-10-02T11:35:03.183Z,17.73
2022-10-02T11:37:50.723Z,17.59
2022-10-02T11:40:19.851Z,17.48
2022-10-02T11:42:55.839Z,17.54
2022-10-02T11:45:32.623Z,17.54
2022-10-02T11:48:45.553Z,17.52
2022-10-02T11:51:28.909Z,17.54
2022-10-02T11:54:03.245Z,17.82
2022-10-02T11:57:02.657Z,18.04
2022-10-02T11:59:29.675Z,18.13
2022-10-02T12:02:20.025Z,18.15
2022-10-02T12:05:19.266Z,18.00
2022-10-02T12:08:07.685Z,18.04
2022-10-02T12:10:48.574Z,18.23
2022-10-02T12:13:35.938Z,18.52
2022-10-02T12:16:17.582Z,18.81
2022-10-02T12:19:07.065Z,19.35
2022-10-02T12:22:11.855Z,19.46
2022-10-02T12:25:30.772Z,19.01
2022-10-02T12:28:20.069Z,18.97
2022-10-02T12:31:22.049Z,18.57
2022-10-02T12:33:58.159Z,18.35
2022-10-02T12:36:33.950Z,18.30
2022-10-02T12:39:22.294Z,18.20
2022-10-02T12:42:00.551Z,17.94
2022-10-02T12:44:44.749Z,17.95
2022-10-02T12:47:28.998Z,18.11
2022-10-02T12:50:11.114Z,18.40
2022-10-02T12:52:55.298Z,18.59
2022-10-02T12:55:47.635Z,18.82
2022-10-02T12:58:35.431Z,18.62
2022-10-02T13:01:30.509Z,18.43
2022-10-02T13:04:16.292Z,18.36
2022-10-02T13:07:07.495Z,18.42
2022-10-02T13:09:57.972Z,18.68
2022-10-02T13:12:32.653Z,18.95
2022-10-02T13:15:02.858Z,19.29
2022-10-02T13:17:46.225Z,19.46
2022-10-02T13:20:28.272Z,19.57
2022-10-02T13:23:32.018Z,19.82
2022-10-02T13:26:16.542Z,20.09
2022-10-02T13:28:58.105Z,20.39
2022-10-02T13:31:57.703Z,20.42
2022-10-02T13:34:27.230Z,20.44
2022-10-02T13:37:22.683Z,20.01
2022-10-02T13:40:21.828Z,19.67
2022-10-02T13:43:07.559Z,19.15
2022-10-02T13:46:17.715Z,18.78
2022-10-02T13:49:02.305Z,18.57
2022-10-02T13:51:43.452Z,18.33
2022-10-02T13:54:50.103Z,18.26
2022-10-02T13:57:51.136Z,18.78
2022-10-02T14:00:37.195Z,19.74
2022-10-02T14:03:13.296Z,20.37
2022-10-02T14:05:57.066Z,20.88
2022-10-02T14:08:52.179Z,20.78
2022-10-02T14:11:30.532Z,21.09
2022-10-02T14:14:11.821Z,21.21
2022-10-02T14:16:44.809Z,21.27
2022-10-02T14:19:43.409Z,21.19
2022-10-02T14:22:40.776Z,21.02
2022-10-02T14:25:20.330Z,20.84
2022-10-02T14:28:07.588Z,20.72
2022-10-02T14:31:04.194Z,20.79
2022-10-02T14:33:58.754Z,20.69
2022-10-02T14:36:40.648Z,20.24
2022-10-02T14:39:30.471Z,20.02
2022-10-02T14:42:15.479Z,19.78
2022-10-02T14:45:21.249Z,19.58
2022-10-02T14:48:15.481Z,19.34
2022-10-02T14:51:22.313Z,19.10
2022-10-02T14:54:07.782Z,18.96
2022-10-02T14:57:19.392Z,18.97
2022-10-02T14:59:58.917Z,19.06
2022-10-02T15:02:47.391Z,18.97
2022-10-02T15:05:38.744Z,18.93
2022-10-02T15:08:15.298Z,18.84
2022-10-02T15:10:42.481Z,18.73
2022-10-02T15:13:12.886Z,18.61
2022-10-02T15:16:33.324Z,18.29
2022-10-02T15:19:55.629Z,18.11
2022-10-02T15:22:27.185Z,17.92
2022-10-02T15:24:57.164Z,17.72
2022-10-02T15:27:48.436Z,17.58
2022-10-02T15:30:26.058Z,17.51
2022-10-02T15:33:10.878Z,17.39
2022-10-02T15:36:01.528Z,17.37
2022-10-02T15:38:48.288Z,17.33
2022-10-02T15:41:26.394Z,17.32
2022-10-02T15:44:24.537Z,17.24
2022-10-02T15:47:03.504Z,17.21
2022-10-02T15:50:06.476Z,17.19
2022-10-02T15:52:52.534Z,17.12
2022-10-02T15:55:41.490Z,17.11
2022-10-02T15:58:31.199Z,17.10
2022-10-02T16:01:17.705Z,17.08
2022-10-02T16:04:25.230Z,17.05
2022-10-02T16:07:39.820Z,17.05
2022-10-02T16:10:31.893Z,16.90
2022-10-02T16:13:19.188Z,16.83
2022-10-02T16:15:54.376Z,16.76
2022-10-02T16:18:39.044Z,16.65
2022-10-02T16:21:12.610Z,16.52
2022-10-02T16:24:03.009Z,16.42
2022-10-02T16:27:08.388Z,16.31
2022-10-02T16:29:49.904Z,16.23
2022-10-02T16:32:37.509Z,16.16
2022-10-02T16:35:20.235Z,16.14
2022-10-02T16:37:59.890Z,16.06
2022-10-02T16:41:03.717Z,15.99
2022-10-02T16:43:43.110Z,15.91
2022-10-02T16:46:24.630Z,15.84
2022-10-02T16:49:19.606Z,15.72
2022-10-02T16:52:14.842Z,15.59
2022-10-02T16:54:47.194Z,15.51
2022-10-02T16:57:27.218Z,15.40
2022-10-02T17:00:05.334Z,15.27
2022-10-02T17:02:37.622Z,15.19
2022-10-02T17:05:13.214Z,15.10
2022-10-02T17:08:20.097Z,15.02
2022-10-02T17:10:46.518Z,14.93
2022-10-02T17:13:27.183Z,14.82
2022-10-02T17:16:24.232Z,14.72
2022-10-02T17:19:37.280Z,14.61
2022-10-02T17:22:25.018Z,14.53
2022-10-02T17:25:14.794Z,14.45
2022-10-02T17:27:57.805Z,14.34
2022-10-02T17:30:27.340Z,14.26
2022-10-02T17:33:15.449Z,14.20
2022-10-02T17:35:50.822Z,14.17
2022-10-02T17:38:36.822Z,14.11
2022-10-02T17:41:15.026Z,14.05
2022-10-02T17:43:50.647Z,14.02
2022-10-02T17:46:19.752Z,13.95
2022-10-02T17:49:21.615Z,13.90
2022-10-02T17:51:53.885Z,13.83
2022-10-02T17:55:05.775Z,13.74
2022-10-02T17:57:50.158Z,13.66
2022-10-02T18:00:23.849Z,13.64
2022-10-02T18:03:43.256Z,13.56
2022-10-02T18:06:28.411Z,13.52
2022-10-02T18:09:12.943Z,13.45
2022-10-02T18:12:11.749Z,13.40
2022-10-02T18:15:00.030Z,13.34
2022-10-02T18:17:29.548Z,13.28
2022-10-02T18:20:34.746Z,13.23
2022-10-02T18:23:15.931Z,13.18
2022-10-02T18:25:59.988Z,13.11
2022-10-02T18:29:12.650Z,13.08
2022-10-02T18:31:56.095Z,13.02
2022-10-02T18:34:43.857Z,12.94
2022-10-02T18:37:25.612Z,12.87
2022-10-02T18:40:04.794Z,12.81
2022-10-02T18:42:43.400Z,12.75
2022-10-02T18:45:29.050Z,12.69
2022-10-02T18:48:18.718Z,12.59
2022-10-02T18:51:04.057Z,12.48
2022-10-02T18:53:58.208Z,12.35
2022-10-02T18:56:42.790Z,12.28
2022-10-02T18:59:32.636Z,12.16
2022-10-02T19:02:11.908Z,12.10
2022-10-02T19:05:08.383Z,12.06
2022-10-02T19:07:48.451Z,11.95
2022-10-02T19:10:29.522Z,11.87
2022-10-02T19:13:18.582Z,11.82
2022-10-02T19:15:46.602Z,11.76
2022-10-02T19:18:22.381Z,11.67
2022-10-02T19:21:08.913Z,11.62
2022-10-02T19:23:40.924Z,11.54
2022-10-02T19:26:18.421Z,11.49
2022-10-02T19:28:50.460Z,11.44
2022-10-02T19:31:29.415Z,11.42
2022-10-02T19:34:06.865Z,11.44
2022-10-02T19:36:54.917Z,11.38
2022-10-02T19:39:30.841Z,11.31
2022-10-02T19:42:01.200Z,11.25
2022-10-02T19:44:31.148Z,11.17
2022-10-02T19:47:01.277Z,11.07
2022-10-02T19:49:32.231Z,10.96
2022-10-02T19:51:58.623Z,10.88
2022-10-02T19:54:31.975Z,10.81
2022-10-02T19:57:07.545Z,10.72
2022-10-02T19:59:41.966Z,10.65
2022-10-02T20:02:24.850Z,10.61
2022-10-02T20:04:54.019Z,10.56
2022-10-02T20:07:24.422Z,10.56
2022-10-02T20:10:03.734Z,10.50
2022-10-02T20:12:36.977Z,10.52
2022-10-02T20:15:39.756Z,10.52
2022-10-02T20:18:07.504Z,10.50
2022-10-02T20:20:37.020Z,10.48
2022-10-02T20:23:10.972Z,10.47
2022-10-02T20:25:46.542Z,10.47
2022-10-02T20:28:45.975Z,10.45
2022-10-02T20:31:35.100Z,10.42
2022-10-02T20:34:09.357Z,10.45
2022-10-02T20:36:47.901Z,10.45
2022-10-02T20:39:19.573Z,10.47
2022-10-02T20:42:09.802Z,10.41
2022-10-02T20:44:37.730Z,10.37
2022-10-02T20:47:38.000Z,10.33
2022-10-02T20:50:13.498Z,10.31
2022-10-02T20:53:07.794Z,10.23
2022-10-02T20:55:49.886Z,10.18
2022-10-02T20:58:30.894Z,10.14
2022-10-02T21:01:09.382Z,10.14
2022-10-02T21:03:59.342Z,10.14
2022-10-02T21:07:04.141Z,10.16
2022-10-02T21:09:52.630Z,10.17
2022-10-02T21:12:44.366Z,10.17
2022-10-02T21:15:32.182Z,10.17
2022-10-02T21:18:04.647Z,10.18
2022-10-02T21:20:58.677Z,10.15
2022-10-02T21:23:39.847Z,10.13
2022-10-02T21:26:27.978Z,10.11
2022-10-02T21:29:16.356Z,10.10
2022-10-02T21:32:04.777Z,10.10
2022-10-02T21:34:53.960Z,10.07
2022-10-02T21:37:38.321Z,10.12
2022-10-02T21:40:29.553Z,10.12
2022-10-02T21:43:11.611Z,10.12
2022-10-02T21:46:09.115Z,10.12
2022-10-02T21:48:52.049Z,10.11
2022-10-02T21:51:40.811Z,10.07
2022-10-02T21:54:33.475Z,10.03
2022-10-02T21:57:43.408Z,10.02
2022-10-02T22:00:21.674Z,9.99
2022-10-02T22:03:10.145Z,9.98
2022-10-02T22:06:07.985Z,9.92
2022-10-02T22:08:51.473Z,9.92
2022-10-02T22:11:54.943Z,9.90
2022-10-02T22:14:27.480Z,9.87
2022-10-02T22:17:07.668Z,9.84
2022-10-02T22:19:59.878Z,9.80
2022-10-02T22:22:47.586Z,9.78
2022-10-02T22:25:27.036Z,9.71
2022-10-02T22:27:59.430Z,9.65
2022-10-02T22:30:29.105Z,9.65
2022-10-02T22:33:21.537Z,9.62
2022-10-02T22:36:19.973Z,9.57
2022-10-02T22:38:51.147Z,9.49
2022-10-02T22:41:38.483Z,9.42
2022-10-02T22:44:17.905Z,9.38
2022-10-02T22:46:50.768Z,9.33
2022-10-02T22:49:43.083Z,9.33
2022-10-02T22:52:19.969Z,9.32
2022-10-02T22:55:24.056Z,9.32
2022-10-02T22:58:00.134Z,9.29
2022-10-02T23:00:33.033Z,9.26
2022-10-02T23:03:36.488Z,9.22
2022-10-02T23:06:18.933Z,9.18
2022-10-02T23:09:01.796Z,9.13
2022-10-02T23:11:42.075Z,9.09
2022-10-02T23:14:25.326Z,9.07
2022-10-02T23:17:01.340Z,9.03
2022-10-02T23:19:46.779Z,8.98
2022-10-02T23:22:24.003Z,8.92
2022-10-02T23:25:01.000Z,8.91
2022-10-02T23:27:58.309Z,8.90
2022-10-02T23:30:25.287Z,8.89
2022-10-02T23:33:05.097Z,8.84
2022-10-02T23:35:50.269Z,8.79
2022-10-02T23:38:38.593Z,8.78
2022-10-02T23:41:40.618Z,8.73
2022-10-02T23:44:32.110Z,8.74
2022-10-02T23:47:23.354Z,8.70
2022-10-02T23:49:55.000Z,8.65
2022-10-02T23:52:50.160Z,8.63
2022-10-02T23:55:37.353Z,8.65
2022-10-02T23:58:13.693Z,8.65
